createdAt,value
2023-03-27T00:01:57.506Z,61.45
2023-03-27T00:04:28.399Z,70.46
2023-03-27T00:06:57.467Z,68.57
2023-03-27T00:09:27.795Z,60.55
2023-03-27T00:11:59.236Z,54.03
2023-03-27T00:14:28.747Z,54.92
2023-03-27T00:17:00.447Z,57.51
2023-03-27T00:19:29.610Z,59.65
2023-03-27T00:21:58.619Z,61.21
2023-03-27T00:24:28.015Z,69.26
2023-03-27T00:26:56.909Z,68.46
2023-03-27T00:29:25.802Z,58.75
2023-03-27T00:31:54.714Z,53.38
2023-03-27T00:34:23.624Z,55.22
2023-03-27T00:36:53.842Z,57.87
2023-03-27T00:39:23.857Z,60.08
2023-03-27T00:41:55.641Z,61.87
2023-03-27T00:44:34.429Z,70.01
2023-03-27T00:47:04.853Z,66.00
2023-03-27T00:49:37.221Z,55.71
2023-03-27T00:52:07.116Z,53.57
2023-03-27T00:54:41.641Z,55.53
2023-03-27T00:57:14.334Z,57.57
2023-03-27T00:59:45.235Z,59.15
2023-03-27T01:02:15.886Z,59.56
2023-03-27T01:04:46.495Z,61.47
2023-03-27T01:07:16.180Z,70.26
2023-03-27T01:09:46.039Z,68.54
2023-03-27T01:12:47.326Z,59.57
2023-03-27T01:15:16.593Z,52.88
2023-03-27T01:18:07.425Z,54.19
2023-03-27T01:21:05.935Z,56.47
2023-03-27T01:23:59.385Z,57.59
2023-03-27T01:26:35.536Z,59.00
2023-03-27T01:29:14.764Z,60.74
2023-03-27T01:31:58.625Z,71.23
2023-03-27T01:35:01.325Z,67.36
2023-03-27T01:38:01.128Z,56.09
2023-03-27T01:40:36.665Z,53.28
2023-03-27T01:43:15.090Z,55.59
2023-03-27T01:45:59.052Z,57.21
2023-03-27T01:48:42.131Z,58.68
2023-03-27T01:51:21.226Z,60.22
2023-03-27T01:53:58.690Z,60.62
2023-03-27T01:57:11.001Z,70.09
2023-03-27T01:59:44.708Z,63.80
2023-03-27T02:02:19.850Z,53.71
2023-03-27T02:05:03.777Z,51.62
2023-03-27T02:07:40.400Z,53.17
2023-03-27T02:10:15.449Z,55.81
2023-03-27T02:12:50.918Z,57.51
2023-03-27T02:15:25.267Z,66.29
2023-03-27T02:18:09.795Z,63.35
2023-03-27T02:20:40.306Z,52.33
2023-03-27T02:23:09.816Z,52.42
2023-03-27T02:25:44.788Z,53.55
2023-03-27T02:28:41.969Z,57.34
2023-03-27T02:31:31.739Z,57.62
2023-03-27T02:34:26.526Z,59.54
2023-03-27T02:37:06.473Z,70.50
2023-03-27T02:39:49.194Z,65.61
2023-03-27T02:42:27.503Z,53.10
2023-03-27T02:45:02.860Z,51.28
2023-03-27T02:47:44.793Z,52.73
2023-03-27T02:50:19.954Z,55.70
2023-03-27T02:52:54.154Z,56.47
2023-03-27T02:55:29.764Z,57.87
2023-03-27T02:58:12.672Z,59.31
2023-03-27T03:00:49.041Z,59.95
2023-03-27T03:03:54.065Z,69.08
2023-03-27T03:06:30.064Z,63.99
2023-03-27T03:09:07.372Z,53.03
2023-03-27T03:11:46.313Z,51.80
2023-03-27T03:14:17.592Z,52.72
2023-03-27T03:16:46.756Z,55.65
2023-03-27T03:19:15.643Z,56.86
2023-03-27T03:21:44.756Z,58.56
2023-03-27T03:24:13.704Z,59.11
2023-03-27T03:26:45.168Z,59.85
2023-03-27T03:29:14.329Z,62.63
2023-03-27T03:31:43.691Z,70.90
2023-03-27T03:34:16.376Z,62.12
2023-03-27T03:36:49.815Z,51.63
2023-03-27T03:39:19.120Z,50.72
2023-03-27T03:41:48.845Z,51.97
2023-03-27T03:44:18.362Z,54.67
2023-03-27T03:46:47.326Z,56.80
2023-03-27T03:49:16.385Z,57.49
2023-03-27T03:51:46.095Z,58.89
2023-03-27T03:54:15.051Z,59.77
2023-03-27T03:56:44.167Z,60.74
2023-03-27T03:59:13.591Z,68.63
2023-03-27T04:01:42.528Z,67.51
2023-03-27T04:04:11.418Z,58.84
2023-03-27T04:06:43.349Z,50.56
2023-03-27T04:09:12.508Z,51.63
2023-03-27T04:11:41.368Z,53.40
2023-03-27T04:14:10.509Z,55.50
2023-03-27T04:16:39.430Z,56.14
2023-03-27T04:19:08.361Z,63.09
2023-03-27T04:21:37.717Z,66.80
2023-03-27T04:24:08.416Z,56.30
2023-03-27T04:26:37.335Z,50.63
2023-03-27T04:29:10.504Z,51.09
2023-03-27T04:31:39.434Z,53.31
2023-03-27T04:34:08.543Z,56.56
2023-03-27T04:36:37.650Z,57.71
2023-03-27T04:39:10.531Z,58.69
2023-03-27T04:41:39.487Z,59.35
2023-03-27T04:44:09.150Z,59.94
2023-03-27T04:46:38.199Z,67.88
2023-03-27T04:49:07.421Z,66.80
2023-03-27T04:51:36.854Z,56.92
2023-03-27T04:54:05.900Z,52.45
2023-03-27T04:56:37.701Z,52.84
2023-03-27T04:59:06.610Z,54.86
2023-03-27T05:01:36.201Z,54.43
2023-03-27T05:04:05.321Z,59.22
2023-03-27T05:06:34.241Z,58.31
2023-03-27T05:09:03.608Z,59.89
2023-03-27T05:11:32.509Z,61.64
2023-03-27T05:14:01.812Z,71.11
2023-03-27T05:16:31.546Z,64.30
2023-03-27T05:19:03.461Z,52.08
2023-03-27T05:21:32.351Z,49.61
2023-03-27T05:24:01.350Z,52.13
2023-03-27T05:26:31.182Z,53.79
2023-03-27T05:29:00.348Z,55.79
2023-03-27T05:31:29.304Z,57.95
2023-03-27T05:33:58.787Z,59.36
2023-03-27T05:36:29.753Z,66.19
2023-03-27T05:38:58.789Z,64.05
2023-03-27T05:41:27.883Z,52.88
2023-03-27T05:43:57.194Z,50.41
2023-03-27T05:46:26.167Z,51.63
2023-03-27T05:48:55.283Z,53.16
2023-03-27T05:51:24.255Z,56.30
2023-03-27T05:53:54.934Z,56.63
2023-03-27T05:56:24.080Z,56.18
2023-03-27T05:58:52.990Z,57.52
2023-03-27T06:01:23.700Z,61.32
2023-03-27T06:03:56.155Z,67.99
2023-03-27T06:06:26.601Z,62.59
2023-03-27T06:08:59.327Z,51.75
2023-03-27T06:11:28.323Z,48.41
2023-03-27T06:13:58.606Z,53.80
2023-03-27T06:16:28.333Z,52.21
2023-03-27T06:18:57.522Z,55.83
2023-03-27T06:21:26.435Z,56.06
2023-03-27T06:23:56.434Z,57.83
2023-03-27T06:26:25.365Z,57.74
2023-03-27T06:28:55.325Z,60.85
2023-03-27T06:31:24.587Z,66.56
2023-03-27T06:33:53.587Z,59.07
2023-03-27T06:36:22.523Z,49.07
2023-03-27T06:38:52.065Z,52.12
2023-03-27T06:41:20.983Z,52.09
2023-03-27T06:43:49.894Z,53.88
2023-03-27T06:46:19.016Z,55.05
2023-03-27T06:48:51.226Z,58.05
2023-03-27T06:51:23.228Z,57.03
2023-03-27T06:53:52.272Z,58.82
2023-03-27T06:56:21.273Z,57.33
2023-03-27T06:58:50.175Z,59.42
2023-03-27T07:01:19.120Z,61.33
2023-03-27T07:03:48.386Z,66.92
2023-03-27T07:06:19.396Z,62.32
2023-03-27T07:08:49.205Z,52.00
2023-03-27T07:11:18.551Z,50.75
2023-03-27T07:13:47.729Z,51.25
2023-03-27T07:16:16.673Z,52.29
2023-03-27T07:18:46.138Z,54.98
2023-03-27T07:21:15.953Z,54.28
2023-03-27T07:23:46.390Z,55.94
2023-03-27T07:26:15.791Z,58.12
2023-03-27T07:28:45.195Z,58.87
2023-03-27T07:31:31.655Z,57.85
2023-03-27T07:34:05.481Z,56.77
2023-03-27T07:36:34.593Z,57.83
2023-03-27T07:39:03.902Z,58.23
2023-03-27T07:41:32.809Z,56.64
2023-03-27T07:44:01.994Z,57.87
2023-03-27T07:46:30.923Z,57.01
2023-03-27T07:48:59.890Z,57.76
2023-03-27T07:51:28.791Z,60.64
2023-03-27T07:53:58.901Z,60.71
2023-03-27T07:56:28.155Z,60.60
2023-03-27T07:58:57.263Z,61.76
2023-03-27T08:01:26.428Z,67.00
2023-03-27T08:03:55.684Z,64.65
2023-03-27T08:06:24.730Z,53.21
2023-03-27T08:08:53.653Z,48.98
2023-03-27T08:11:30.209Z,49.03
2023-03-27T08:14:00.062Z,51.60
2023-03-27T08:16:30.165Z,52.96
2023-03-27T08:19:01.549Z,53.55
2023-03-27T08:21:32.102Z,54.97
2023-03-27T08:24:02.837Z,55.14
2023-03-27T08:26:32.343Z,55.32
2023-03-27T08:29:01.333Z,56.84
2023-03-27T08:31:31.474Z,57.87
2023-03-27T08:34:01.523Z,57.70
2023-03-27T08:36:32.225Z,57.95
2023-03-27T08:39:02.983Z,58.69
2023-03-27T08:41:39.185Z,60.51
2023-03-27T08:44:14.949Z,59.38
2023-03-27T08:47:01.665Z,59.18
2023-03-27T08:49:40.151Z,58.21
2023-03-27T08:52:15.758Z,58.69
2023-03-27T08:54:50.477Z,58.20
2023-03-27T08:57:22.018Z,57.00
2023-03-27T08:59:57.227Z,56.49
2023-03-27T09:02:46.147Z,51.49
2023-03-27T09:05:21.455Z,55.48
2023-03-27T09:08:23.925Z,52.95
2023-03-27T09:11:00.819Z,53.82
2023-03-27T09:13:50.146Z,52.54
2023-03-27T09:16:21.880Z,53.89
2023-03-27T09:19:11.715Z,54.26
2023-03-27T09:21:48.223Z,53.28
2023-03-27T09:24:34.537Z,52.72
2023-03-27T09:27:13.134Z,52.93
2023-03-27T09:29:42.165Z,53.75
2023-03-27T09:32:16.315Z,54.08
2023-03-27T09:34:46.213Z,53.04
2023-03-27T09:37:17.475Z,53.62
2023-03-27T09:39:51.654Z,53.17
2023-03-27T09:42:33.330Z,52.64
2023-03-27T09:45:06.415Z,54.14
2023-03-27T09:47:45.363Z,52.61
2023-03-27T09:50:36.011Z,54.03
2023-03-27T09:53:12.407Z,53.67
2023-03-27T09:55:55.740Z,53.62
2023-03-27T09:58:40.210Z,53.23
2023-03-27T10:01:34.526Z,53.47
2023-03-27T10:04:14.480Z,53.41
2023-03-27T10:06:48.238Z,53.20
2023-03-27T10:09:30.422Z,52.82
2023-03-27T10:12:20.805Z,52.98
2023-03-27T10:14:52.838Z,53.82
2023-03-27T10:17:26.359Z,53.13
2023-03-27T10:20:20.563Z,53.08
2023-03-27T10:22:56.903Z,52.23
2023-03-27T10:25:28.914Z,53.16
2023-03-27T10:28:10.969Z,52.97
2023-03-27T10:30:40.985Z,52.54
2023-03-27T10:33:09.943Z,52.21
2023-03-27T10:35:46.225Z,53.60
2023-03-27T10:38:17.431Z,52.44
2023-03-27T10:40:51.639Z,52.01
2023-03-27T10:43:40.665Z,51.21
2023-03-27T10:46:24.432Z,50.60
2023-03-27T10:49:17.635Z,51.50
2023-03-27T10:51:51.667Z,50.15
2023-03-27T10:54:33.313Z,51.67
2023-03-27T10:57:21.348Z,51.51
2023-03-27T11:00:32.640Z,52.17
2023-03-27T11:03:18.532Z,51.88
2023-03-27T11:05:53.801Z,51.21
2023-03-27T11:08:34.789Z,50.18
2023-03-27T11:11:29.812Z,50.12
2023-03-27T11:14:03.804Z,50.23
2023-03-27T11:16:39.343Z,49.92
2023-03-27T11:19:22.506Z,47.64
2023-03-27T11:21:56.081Z,49.28
2023-03-27T11:24:41.147Z,49.31
2023-03-27T11:27:28.110Z,50.90
2023-03-27T11:30:08.605Z,50.78
2023-03-27T11:32:48.048Z,50.74
2023-03-27T11:35:27.814Z,49.69
2023-03-27T11:38:23.256Z,51.28
2023-03-27T11:40:52.263Z,52.08
2023-03-27T11:43:22.584Z,51.96
2023-03-27T11:46:06.897Z,52.14
2023-03-27T11:48:35.890Z,52.17
2023-03-27T11:51:14.702Z,52.13
2023-03-27T11:54:08.929Z,52.38
2023-03-27T11:56:58.053Z,52.96
2023-03-27T11:59:59.543Z,53.22
2023-03-27T12:02:29.115Z,53.27
2023-03-27T12:05:17.205Z,52.97
2023-03-27T12:08:00.484Z,52.95
2023-03-27T12:10:37.662Z,52.87
2023-03-27T12:13:42.231Z,53.55
2023-03-27T12:16:36.878Z,53.27
2023-03-27T12:19:28.482Z,52.91
2023-03-27T12:22:09.287Z,52.53
2023-03-27T12:25:14.351Z,51.73
2023-03-27T12:28:03.050Z,52.11
2023-03-27T12:31:03.301Z,52.83
2023-03-27T12:33:50.741Z,53.08
2023-03-27T12:36:24.432Z,53.92
2023-03-27T12:38:55.873Z,54.45
2023-03-27T12:41:29.343Z,54.25
2023-03-27T12:44:00.360Z,54.08
2023-03-27T12:46:35.809Z,52.69
2023-03-27T12:49:08.514Z,52.38
2023-03-27T12:51:54.028Z,51.37
2023-03-27T12:54:39.164Z,51.11
2023-03-27T12:57:22.457Z,50.91
2023-03-27T12:59:56.106Z,50.86
2023-03-27T13:02:31.265Z,51.03
2023-03-27T13:05:00.453Z,50.22
2023-03-27T13:07:58.428Z,49.75
2023-03-27T13:11:09.920Z,49.63
2023-03-27T13:14:14.731Z,49.54
2023-03-27T13:17:05.072Z,48.63
2023-03-27T13:19:53.373Z,48.08
2023-03-27T13:22:39.682Z,46.70
2023-03-27T13:25:14.829Z,46.64
2023-03-27T13:28:17.914Z,46.35
2023-03-27T13:30:50.467Z,45.59
2023-03-27T13:33:31.610Z,44.81
2023-03-27T13:36:14.853Z,45.03
2023-03-27T13:39:08.806Z,46.07
2023-03-27T13:41:43.573Z,45.52
2023-03-27T13:44:19.909Z,45.13
2023-03-27T13:46:57.442Z,45.77
2023-03-27T13:49:50.112Z,45.35
2023-03-27T13:52:44.907Z,45.63
2023-03-27T13:55:19.548Z,46.17
2023-03-27T13:58:12.080Z,45.92
2023-03-27T14:01:28.292Z,45.61
2023-03-27T14:04:13.875Z,45.86
2023-03-27T14:06:48.631Z,45.95
2023-03-27T14:09:31.398Z,46.22
2023-03-27T14:12:25.665Z,45.66
2023-03-27T14:15:33.972Z,47.00
2023-03-27T14:18:13.845Z,47.06
2023-03-27T14:20:45.479Z,46.27
2023-03-27T14:23:25.302Z,45.16
2023-03-27T14:26:29.761Z,44.63
2023-03-27T14:29:01.083Z,44.20
2023-03-27T14:31:35.590Z,43.81
2023-03-27T14:34:17.184Z,43.92
2023-03-27T14:36:47.600Z,43.22
2023-03-27T14:39:19.955Z,42.79
2023-03-27T14:41:54.297Z,43.21
2023-03-27T14:44:24.902Z,42.16
2023-03-27T14:47:15.380Z,42.38
2023-03-27T14:49:49.265Z,42.16
2023-03-27T14:52:35.333Z,43.66
2023-03-27T14:55:06.328Z,43.31
2023-03-27T14:57:35.766Z,43.80
2023-03-27T15:00:07.069Z,43.26
2023-03-27T15:02:36.185Z,43.13
2023-03-27T15:05:12.307Z,42.45
2023-03-27T15:07:42.954Z,42.88
2023-03-27T15:10:12.606Z,43.22
2023-03-27T15:12:48.417Z,41.79
2023-03-27T15:15:42.944Z,42.07
2023-03-27T15:18:28.340Z,41.83
2023-03-27T15:21:06.602Z,41.14
2023-03-27T15:24:10.699Z,41.72
2023-03-27T15:26:41.241Z,42.04
2023-03-27T15:29:18.166Z,42.29
2023-03-27T15:31:50.469Z,42.05
2023-03-27T15:34:23.390Z,41.27
2023-03-27T15:37:00.435Z,40.12
2023-03-27T15:39:29.702Z,41.61
2023-03-27T15:42:20.568Z,41.71
2023-03-27T15:44:49.822Z,40.98
2023-03-27T15:47:27.158Z,41.39
2023-03-27T15:50:27.065Z,41.02
2023-03-27T15:52:58.288Z,41.79
2023-03-27T15:55:31.979Z,42.29
2023-03-27T15:58:25.445Z,42.86
2023-03-27T16:01:03.032Z,42.93
2023-03-27T16:03:48.621Z,40.94
2023-03-27T16:06:32.762Z,42.01
2023-03-27T16:09:04.851Z,41.23
2023-03-27T16:11:35.953Z,41.98
2023-03-27T16:14:05.090Z,42.77
2023-03-27T16:16:34.830Z,42.96
2023-03-27T16:19:12.405Z,42.89
2023-03-27T16:21:55.434Z,42.20
2023-03-27T16:24:24.349Z,42.30
2023-03-27T16:26:54.969Z,42.34
2023-03-27T16:29:24.040Z,42.62
2023-03-27T16:31:53.018Z,42.95
2023-03-27T16:34:23.464Z,42.68
2023-03-27T16:36:52.824Z,42.86
2023-03-27T16:39:22.483Z,43.08
2023-03-27T16:41:51.338Z,43.42
2023-03-27T16:44:20.420Z,43.52
2023-03-27T16:46:49.574Z,43.57
2023-03-27T16:49:18.488Z,43.50
2023-03-27T16:51:47.397Z,44.02
2023-03-27T16:54:16.287Z,44.32
2023-03-27T16:56:45.782Z,44.00
2023-03-27T16:59:16.219Z,43.86
2023-03-27T17:01:45.330Z,44.22
2023-03-27T17:04:14.515Z,44.74
2023-03-27T17:06:43.495Z,45.15
2023-03-27T17:09:13.286Z,45.21
2023-03-27T17:11:42.536Z,45.27
2023-03-27T17:14:12.279Z,45.36
2023-03-27T17:16:41.203Z,45.43
2023-03-27T17:19:10.406Z,45.75
2023-03-27T17:21:39.354Z,46.24
2023-03-27T17:24:09.262Z,46.05
2023-03-27T17:26:38.539Z,46.33
2023-03-27T17:29:08.665Z,46.52
2023-03-27T17:31:38.182Z,46.68
2023-03-27T17:34:07.966Z,46.89
2023-03-27T17:36:43.294Z,46.98
2023-03-27T17:39:14.115Z,47.09
2023-03-27T17:41:43.090Z,47.50
2023-03-27T17:44:12.854Z,47.61
2023-03-27T17:46:42.115Z,47.85
2023-03-27T17:49:11.091Z,47.80
2023-03-27T17:51:40.046Z,48.10
2023-03-27T17:54:09.016Z,48.33
2023-03-27T17:56:37.974Z,48.29
2023-03-27T17:59:06.897Z,48.52
2023-03-27T18:01:36.113Z,48.44
2023-03-27T18:04:05.229Z,48.85
2023-03-27T18:06:34.222Z,49.22
2023-03-27T18:09:03.330Z,49.33
2023-03-27T18:11:32.566Z,49.47
2023-03-27T18:14:01.455Z,49.80
2023-03-27T18:16:30.616Z,50.42
2023-03-27T18:18:59.790Z,50.71
2023-03-27T18:21:28.915Z,50.89
2023-03-27T18:23:59.678Z,51.05
2023-03-27T18:26:28.955Z,51.40
2023-03-27T18:28:57.999Z,51.91
2023-03-27T18:31:27.155Z,51.92
2023-03-27T18:33:56.103Z,52.12
2023-03-27T18:36:25.009Z,52.23
2023-03-27T18:38:53.935Z,52.84
2023-03-27T18:41:22.954Z,53.15
2023-03-27T18:43:52.046Z,53.75
2023-03-27T18:46:21.269Z,53.73
2023-03-27T18:48:50.388Z,53.90
2023-03-27T18:51:19.605Z,54.63
2023-03-27T18:53:50.040Z,54.59
2023-03-27T18:56:19.006Z,54.67
2023-03-27T18:58:48.509Z,54.78
2023-03-27T19:01:17.584Z,55.22
2023-03-27T19:03:46.594Z,55.68
2023-03-27T19:06:15.682Z,55.91
2023-03-27T19:08:45.612Z,56.05
2023-03-27T19:11:14.941Z,55.84
2023-03-27T19:13:43.959Z,55.46
2023-03-27T19:16:14.297Z,56.09
2023-03-27T19:18:44.595Z,55.90
2023-03-27T19:21:13.552Z,56.90
2023-03-27T19:23:42.895Z,56.79
2023-03-27T19:26:15.409Z,56.50
2023-03-27T19:28:47.609Z,56.92
2023-03-27T19:31:17.143Z,57.28
2023-03-27T19:33:46.234Z,57.46
2023-03-27T19:36:15.843Z,57.99
2023-03-27T19:38:44.860Z,57.86
2023-03-27T19:41:13.795Z,57.98
2023-03-27T19:43:42.759Z,58.08
2023-03-27T19:48:47.400Z,58.02
2023-03-27T19:51:16.420Z,58.06
2023-03-27T19:53:45.325Z,57.96
2023-03-27T19:56:14.247Z,57.59
2023-03-27T19:58:43.132Z,57.86
2023-03-27T20:01:12.077Z,58.23
2023-03-27T20:03:41.576Z,57.99
2023-03-27T20:06:18.569Z,57.87
2023-03-27T20:08:47.763Z,58.72
2023-03-27T20:11:16.749Z,59.15
2023-03-27T20:13:56.149Z,59.46
2023-03-27T20:16:27.722Z,60.01
2023-03-27T20:19:04.027Z,58.81
2023-03-27T20:21:37.625Z,58.63
2023-03-27T20:24:10.237Z,59.16
2023-03-27T20:26:41.702Z,59.02
2023-03-27T20:29:13.582Z,58.46
2023-03-27T20:31:42.921Z,58.52
2023-03-27T20:34:12.706Z,58.96
2023-03-27T20:36:43.428Z,58.85
2023-03-27T20:39:14.502Z,59.32
2023-03-27T20:41:47.065Z,59.77
2023-03-27T20:44:35.139Z,59.31
2023-03-27T20:47:11.030Z,59.06
2023-03-27T20:49:42.985Z,58.77
2023-03-27T20:52:15.709Z,58.62
2023-03-27T20:54:45.115Z,58.55
2023-03-27T20:57:13.999Z,58.48
2023-03-27T20:59:43.644Z,58.43
2023-03-27T21:02:17.252Z,58.40
2023-03-27T21:04:47.561Z,58.61
2023-03-27T21:07:17.047Z,58.40
2023-03-27T21:09:46.050Z,58.35
2023-03-27T21:12:15.454Z,58.39
2023-03-27T21:14:44.657Z,58.42
2023-03-27T21:17:13.658Z,58.43
2023-03-27T21:19:42.806Z,58.40
2023-03-27T21:22:11.708Z,58.51
2023-03-27T21:24:40.765Z,58.49
2023-03-27T21:27:09.764Z,58.49
2023-03-27T21:29:38.745Z,58.58
2023-03-27T21:32:07.933Z,58.58
2023-03-27T21:34:37.149Z,58.79
2023-03-27T21:37:06.112Z,58.87
2023-03-27T21:39:35.098Z,59.09
2023-03-27T21:42:04.331Z,59.18
2023-03-27T21:44:33.348Z,59.25
2023-03-27T21:47:02.343Z,59.28
2023-03-27T21:49:31.236Z,59.36
2023-03-27T21:52:00.562Z,59.56
2023-03-27T21:54:29.537Z,59.47
2023-03-27T21:56:58.579Z,59.73
2023-03-27T21:59:28.450Z,60.00
2023-03-27T22:01:57.656Z,60.46
2023-03-27T22:04:27.085Z,60.46
2023-03-27T22:06:56.259Z,60.67
2023-03-27T22:09:25.263Z,60.78
2023-03-27T22:11:54.200Z,61.17
2023-03-27T22:14:23.620Z,61.37
2023-03-27T22:16:52.685Z,61.37
2023-03-27T22:19:21.598Z,61.66
2023-03-27T22:21:50.530Z,61.78
2023-03-27T22:24:19.795Z,62.07
2023-03-27T22:26:48.754Z,62.96
2023-03-27T22:29:17.957Z,74.56
2023-03-27T22:31:47.010Z,75.04
2023-03-27T22:34:16.192Z,68.32
2023-03-27T22:36:45.455Z,59.26
2023-03-27T22:39:14.450Z,52.23
2023-03-27T22:41:43.350Z,51.87
2023-03-27T22:44:12.677Z,53.24
2023-03-27T22:46:41.879Z,54.29
2023-03-27T22:49:10.857Z,55.47
2023-03-27T22:51:39.743Z,57.70
2023-03-27T22:54:08.842Z,59.33
2023-03-27T22:56:37.803Z,59.55
2023-03-27T22:59:07.141Z,60.50
2023-03-27T23:01:36.509Z,61.31
2023-03-27T23:04:05.852Z,62.12
2023-03-27T23:06:35.161Z,64.45
2023-03-27T23:09:04.670Z,64.55
2023-03-27T23:11:33.669Z,60.10
2023-03-27T23:14:02.608Z,56.56
2023-03-27T23:16:31.912Z,56.93
2023-03-27T23:19:00.943Z,58.36
2023-03-27T23:21:29.856Z,66.45
2023-03-27T23:23:58.804Z,75.66
2023-03-27T23:26:27.858Z,67.66
2023-03-27T23:28:56.855Z,61.04
2023-03-27T23:31:26.003Z,54.95
2023-03-27T23:33:54.962Z,53.46
2023-03-27T23:36:24.960Z,55.78
2023-03-27T23:38:54.945Z,56.85
2023-03-27T23:41:23.897Z,59.23
2023-03-27T23:43:54.012Z,62.36
2023-03-27T23:46:23.037Z,71.90
2023-03-27T23:48:51.971Z,67.78
2023-03-27T23:51:21.155Z,63.02
2023-03-27T23:53:50.570Z,60.33
2023-03-27T23:56:19.509Z,53.89
2023-03-27T23:58:48.512Z,54.10
